createdAt,value
2018-08-17T00:00:38.700Z,98835.16
2018-08-17T00:03:07.634Z,98831.94
2018-08-17T00:05:36.633Z,98823.08
2018-08-17T00:08:05.548Z,98826.83
2018-08-17T00:10:34.397Z,98827.06
2018-08-17T00:13:03.285Z,98824.72
2018-08-17T00:15:32.128Z,98820.81
2018-08-17T00:18:01.004Z,98817.70
2018-08-17T00:20:29.948Z,98809.14
2018-08-17T00:22:58.849Z,98813.11
2018-08-17T00:25:27.787Z,98808.15
2018-08-17T00:27:57.554Z,98811.86
2018-08-17T00:30:27.134Z,98814.37
2018-08-17T00:32:56.048Z,98813.41
2018-08-17T00:35:24.980Z,98818.66
2018-08-17T00:37:53.836Z,98817.78
2018-08-17T00:40:22.694Z,98815.23
2018-08-17T00:42:51.664Z,98812.92
2018-08-17T00:45:20.587Z,98810.13
2018-08-17T00:47:49.463Z,98812.73
2018-08-17T00:50:18.319Z,98814.39
2018-08-17T00:52:47.214Z,98811.59
2018-08-17T00:55:16.096Z,98814.23
2018-08-17T00:57:44.970Z,98812.65
2018-08-17T01:00:13.902Z,98815.55
2018-08-17T01:02:42.758Z,98809.86
2018-08-17T01:05:11.655Z,98797.49
2018-08-17T01:07:40.479Z,98798.89
2018-08-17T01:10:09.412Z,98798.66
2018-08-17T01:12:38.302Z,98801.84
2018-08-17T01:15:07.380Z,98795.97
2018-08-17T01:17:36.244Z,98800.52
2018-08-17T01:20:06.587Z,98797.95
2018-08-17T01:22:35.426Z,98797.06
2018-08-17T01:25:04.531Z,98791.67
2018-08-17T01:27:33.365Z,98798.73
2018-08-17T01:30:02.176Z,98791.39
2018-08-17T01:32:31.026Z,98790.71
2018-08-17T01:34:59.882Z,98793.85
2018-08-17T01:37:28.748Z,98788.36
2018-08-17T01:39:57.616Z,98787.26
2018-08-17T01:42:26.524Z,98787.09
2018-08-17T01:44:55.344Z,98790.60
2018-08-17T01:47:24.255Z,98783.81
2018-08-17T01:49:53.134Z,98787.44
2018-08-17T01:52:21.947Z,98788.94
2018-08-17T01:54:50.805Z,98788.80
2018-08-17T01:57:19.707Z,98790.44
2018-08-17T01:59:48.560Z,98787.51
2018-08-17T02:02:17.424Z,98787.88
2018-08-17T02:04:46.321Z,98787.47
2018-08-17T02:07:15.209Z,98780.03
2018-08-17T02:09:44.056Z,98779.63
2018-08-17T02:12:12.909Z,98775.87
2018-08-17T02:14:41.840Z,98774.92
2018-08-17T02:17:10.658Z,98777.41
2018-08-17T02:19:39.514Z,98778.26
2018-08-17T02:22:08.352Z,98780.92
2018-08-17T02:24:37.223Z,98772.59
2018-08-17T02:27:06.068Z,98777.77
2018-08-17T02:29:34.970Z,98772.77
2018-08-17T02:32:03.844Z,98774.26
2018-08-17T02:34:32.791Z,98776.78
2018-08-17T02:37:01.727Z,98776.75
2018-08-17T02:39:30.589Z,98774.05
2018-08-17T02:41:59.546Z,98775.96
2018-08-17T02:44:28.681Z,98773.11
2018-08-17T02:46:57.586Z,98774.54
2018-08-17T02:49:26.506Z,98771.98
2018-08-17T02:51:55.466Z,98770.80
2018-08-17T02:54:24.331Z,98776.51
2018-08-17T02:56:53.184Z,98768.02
2018-08-17T02:59:22.091Z,98768.05
2018-08-17T03:01:50.987Z,98772.95
2018-08-17T03:04:20.051Z,98772.17
2018-08-17T03:06:48.916Z,98772.08
2018-08-17T03:09:17.791Z,98769.41
2018-08-17T03:11:46.668Z,98781.88
2018-08-17T03:14:15.631Z,98770.72
2018-08-17T03:16:44.600Z,98773.11
2018-08-17T03:19:13.655Z,98773.05
2018-08-17T03:21:42.678Z,98776.74
2018-08-17T03:24:11.709Z,98783.68
2018-08-17T03:26:40.782Z,98765.73
2018-08-17T03:29:09.888Z,98777.70
2018-08-17T03:31:38.859Z,98778.03
2018-08-17T03:34:07.983Z,98777.48
2018-08-17T03:36:36.882Z,98771.24
2018-08-17T03:39:08.712Z,98773.84
2018-08-17T03:41:37.734Z,98777.50
2018-08-17T03:44:06.659Z,98785.55
2018-08-17T03:46:35.553Z,98777.03
2018-08-17T03:51:47.789Z,98796.38
2018-08-17T03:54:16.628Z,98804.44
2018-08-17T03:56:45.552Z,98796.73
2018-08-17T03:59:14.485Z,98799.66
2018-08-17T04:01:43.350Z,98803.23
2018-08-17T04:04:12.162Z,98801.62
2018-08-17T04:06:41.001Z,98802.53
2018-08-17T04:09:11.054Z,98806.69
2018-08-17T04:11:40.196Z,98809.61
2018-08-17T04:14:09.541Z,98808.41
2018-08-17T04:16:38.388Z,98810.76
2018-08-17T04:19:07.208Z,98806.55
2018-08-17T04:21:36.066Z,98802.31
2018-08-17T04:24:05.041Z,98807.05
2018-08-17T04:26:33.886Z,98805.73
2018-08-17T04:29:02.755Z,98801.94
2018-08-17T04:31:31.605Z,98805.62
2018-08-17T04:34:00.466Z,98806.23
2018-08-17T04:36:29.509Z,98801.02
2018-08-17T04:38:58.349Z,98794.91
2018-08-17T04:41:27.150Z,98792.73
2018-08-17T04:43:55.977Z,98791.88
2018-08-17T04:46:24.797Z,98785.80
2018-08-17T04:48:53.636Z,98783.96
2018-08-17T04:51:22.503Z,98786.16
2018-08-17T04:53:51.318Z,98782.06
2018-08-17T04:56:20.171Z,98785.69
2018-08-17T04:58:49.013Z,98783.06
2018-08-17T05:01:17.885Z,98789.91
2018-08-17T05:03:46.821Z,98789.45
2018-08-17T05:06:15.703Z,98795.84
2018-08-17T05:08:44.555Z,98797.00
2018-08-17T05:11:13.361Z,98796.97
2018-08-17T05:13:42.226Z,98795.34
2018-08-17T05:16:11.174Z,98804.13
2018-08-17T05:18:40.116Z,98800.57
2018-08-17T05:21:08.991Z,98802.75
2018-08-17T05:23:37.805Z,98804.13
2018-08-17T05:26:06.697Z,98809.35
2018-08-17T05:28:35.567Z,98803.34
2018-08-17T05:31:04.479Z,98801.38
2018-08-17T05:33:33.353Z,98806.58
2018-08-17T05:36:02.308Z,98805.50
2018-08-17T05:38:31.116Z,98809.91
2018-08-17T05:40:59.952Z,98806.05
2018-08-17T05:43:28.832Z,98809.94
2018-08-17T05:45:57.667Z,98803.08
2018-08-17T05:48:26.482Z,98808.86
2018-08-17T05:50:55.353Z,98799.80
2018-08-17T05:53:24.205Z,98807.20
2018-08-17T05:55:53.086Z,98805.30
2018-08-17T05:58:22.008Z,98799.77
2018-08-17T06:00:50.998Z,98804.39
2018-08-17T06:03:19.826Z,98807.09
2018-08-17T06:05:48.702Z,98811.77
2018-08-17T06:08:17.574Z,98810.42
2018-08-17T06:10:46.423Z,98811.20
2018-08-17T06:13:15.416Z,98808.48
2018-08-17T06:15:44.256Z,98806.18
2018-08-17T06:18:13.165Z,98806.89
2018-08-17T06:20:42.043Z,98803.13
2018-08-17T06:23:10.953Z,98806.08
2018-08-17T06:25:39.905Z,98801.98
2018-08-17T06:28:08.875Z,98807.95
2018-08-17T06:30:37.712Z,98807.03
2018-08-17T06:33:06.767Z,98800.97
2018-08-17T06:35:35.684Z,98809.97
2018-08-17T06:38:04.647Z,98805.92
2018-08-17T06:40:33.473Z,98805.23
2018-08-17T06:43:02.347Z,98804.48
2018-08-17T06:45:31.263Z,98801.74
2018-08-17T06:48:00.138Z,98805.73
2018-08-17T06:50:29.037Z,98799.83
2018-08-17T06:52:57.864Z,98803.67
2018-08-17T06:55:26.714Z,98805.77
2018-08-17T06:57:55.555Z,98811.42
2018-08-17T07:00:24.464Z,98812.48
2018-08-17T07:02:53.356Z,98810.44
2018-08-17T07:05:22.204Z,98809.63
2018-08-17T07:07:51.034Z,98811.41
2018-08-17T07:10:19.919Z,98814.17
2018-08-17T07:12:48.870Z,98811.81
2018-08-17T07:15:17.681Z,98805.06
2018-08-17T07:17:46.556Z,98812.77
2018-08-17T07:20:15.440Z,98807.61
2018-08-17T07:22:44.292Z,98807.43
2018-08-17T07:25:13.089Z,98805.66
2018-08-17T07:27:41.978Z,98806.66
2018-08-17T07:30:11.070Z,98806.08
2018-08-17T07:32:39.886Z,98805.16
2018-08-17T07:35:10.686Z,98805.95
2018-08-17T07:37:39.540Z,98814.66
2018-08-17T07:40:09.098Z,98808.52
2018-08-17T07:42:37.975Z,98803.38
2018-08-17T07:45:07.232Z,98802.53
2018-08-17T07:47:36.088Z,98807.78
2018-08-17T07:50:05.019Z,98809.86
2018-08-17T07:52:33.949Z,98803.58
2018-08-17T07:55:02.990Z,98808.30
2018-08-17T07:57:31.881Z,98804.06
2018-08-17T08:00:00.767Z,98805.05
2018-08-17T08:02:29.610Z,98809.88
2018-08-17T08:04:58.519Z,98814.32
2018-08-17T08:07:27.355Z,98809.02
2018-08-17T08:09:56.192Z,98802.84
2018-08-17T08:12:25.086Z,98806.12
2018-08-17T08:14:53.892Z,98797.58
2018-08-17T08:17:22.693Z,98798.84
2018-08-17T08:20:02.415Z,98799.50
2018-08-17T08:22:31.236Z,98798.03
2018-08-17T08:25:00.068Z,98803.26
2018-08-17T08:27:28.924Z,98786.80
2018-08-17T08:29:57.723Z,98794.53
2018-08-17T08:32:26.633Z,98796.79
2018-08-17T08:34:55.474Z,98796.68
2018-08-17T08:37:24.318Z,98797.14
2018-08-17T08:39:53.165Z,98797.53
2018-08-17T08:42:22.078Z,98793.32
2018-08-17T08:44:50.902Z,98795.11
2018-08-17T08:47:19.710Z,98791.73
2018-08-17T08:49:48.564Z,98790.66
2018-08-17T08:52:17.536Z,98796.16
2018-08-17T08:54:46.389Z,98803.77
2018-08-17T08:57:15.299Z,98796.23
2018-08-17T08:59:44.179Z,98793.98
2018-08-17T09:02:13.076Z,98782.77
2018-08-17T09:04:42.091Z,98791.69
2018-08-17T09:07:11.067Z,98777.69
2018-08-17T09:09:39.970Z,98773.73
2018-08-17T09:12:08.967Z,98767.69
2018-08-17T09:14:37.907Z,98775.46
2018-08-17T09:17:06.791Z,98770.16
2018-08-17T09:19:35.659Z,98768.53
2018-08-17T09:22:04.629Z,98770.06
2018-08-17T09:24:33.486Z,98767.17
2018-08-17T09:27:02.357Z,98777.50
2018-08-17T09:29:31.204Z,98776.45
2018-08-17T09:32:00.080Z,98770.38
2018-08-17T09:34:28.986Z,98766.59
2018-08-17T09:36:57.830Z,98756.39
2018-08-17T09:39:26.988Z,98763.09
2018-08-17T09:41:55.979Z,98762.99
2018-08-17T09:44:24.879Z,98759.91
2018-08-17T09:46:53.736Z,98756.65
2018-08-17T09:49:22.608Z,98757.33
2018-08-17T09:51:51.404Z,98753.55
2018-08-17T09:54:20.238Z,98752.55
2018-08-17T09:56:49.121Z,98751.29
2018-08-17T09:59:17.972Z,98755.75
2018-08-17T10:01:52.186Z,98750.00
2018-08-17T10:04:26.101Z,98755.15
2018-08-17T10:07:00.081Z,98755.97
2018-08-17T10:09:34.069Z,98755.64
2018-08-17T10:12:03.050Z,98755.34
2018-08-17T10:14:31.868Z,98751.28
2018-08-17T10:17:00.802Z,98753.53
2018-08-17T10:19:29.687Z,98756.39
2018-08-17T10:21:59.117Z,98749.42
2018-08-17T10:24:27.808Z,98755.97
2018-08-17T10:26:56.761Z,98751.36
2018-08-17T10:29:25.622Z,98749.89
2018-08-17T10:31:54.476Z,98750.94
2018-08-17T10:34:23.383Z,98747.45
2018-08-17T10:36:52.279Z,98749.58
2018-08-17T10:39:21.141Z,98738.27
2018-08-17T10:41:50.007Z,98735.72
2018-08-17T10:44:18.832Z,98741.78
2018-08-17T10:46:47.704Z,98735.16
2018-08-17T10:49:16.731Z,98737.27
2018-08-17T10:51:45.573Z,98738.16
2018-08-17T10:54:14.471Z,98733.64
2018-08-17T10:56:43.427Z,98727.70
2018-08-17T10:59:12.339Z,98727.25
2018-08-17T11:01:44.602Z,98726.16
2018-08-17T11:04:13.489Z,98713.50
2018-08-17T11:06:42.402Z,98713.52
2018-08-17T11:09:11.920Z,98711.98
2018-08-17T11:11:42.339Z,98707.92
2018-08-17T11:14:11.170Z,98705.25
2018-08-17T11:16:40.115Z,98706.86
2018-08-17T11:19:09.063Z,98706.33
2018-08-17T11:21:38.056Z,98702.11
2018-08-17T11:24:06.953Z,98700.77
2018-08-17T11:26:37.364Z,98693.36
2018-08-17T11:29:06.305Z,98697.67
2018-08-17T11:31:35.254Z,98696.66
2018-08-17T11:34:04.193Z,98696.88
2018-08-17T11:36:33.123Z,98689.76
2018-08-17T11:39:02.029Z,98692.47
2018-08-17T11:41:30.982Z,98689.78
2018-08-17T11:44:03.028Z,98692.24
2018-08-17T11:46:32.247Z,98690.84
2018-08-17T11:49:01.423Z,98691.42
2018-08-17T11:51:30.307Z,98695.63
2018-08-17T11:53:59.240Z,98688.77
2018-08-17T11:56:28.131Z,98690.89
2018-08-17T11:58:56.997Z,98694.20
2018-08-17T12:01:28.284Z,98686.62
2018-08-17T12:03:57.293Z,98692.34
2018-08-17T12:06:26.331Z,98681.46
2018-08-17T12:08:55.213Z,98682.56
2018-08-17T12:11:24.137Z,98687.22
2018-08-17T12:13:52.973Z,98698.14
2018-08-17T12:16:21.818Z,98696.88
2018-08-17T12:18:50.726Z,98691.11
2018-08-17T12:21:19.528Z,98688.54
2018-08-17T12:23:48.372Z,98695.83
2018-08-17T12:26:17.309Z,98688.91
2018-08-17T12:28:46.152Z,98685.84
2018-08-17T12:31:15.224Z,98685.73
2018-08-17T12:33:44.121Z,98682.94
2018-08-17T12:36:13.136Z,98671.41
2018-08-17T12:38:41.993Z,98670.09
2018-08-17T12:41:10.988Z,98669.75
2018-08-17T12:43:40.497Z,98667.63
2018-08-17T12:46:09.394Z,98677.03
2018-08-17T12:48:38.275Z,98704.06
2018-08-17T12:51:08.179Z,98726.08
2018-08-17T12:53:37.007Z,98748.66
2018-08-17T12:56:05.969Z,98721.34
2018-08-17T12:58:34.815Z,98740.80
2018-08-17T13:01:03.998Z,98736.13
2018-08-17T13:03:32.944Z,98741.11
2018-08-17T13:06:01.881Z,98733.97
2018-08-17T13:08:30.768Z,98728.59
2018-08-17T13:11:00.870Z,98723.23
2018-08-17T13:13:29.775Z,98715.97
2018-08-17T13:16:04.798Z,98719.77
2018-08-17T13:18:35.606Z,98730.41
2018-08-17T13:21:04.628Z,98725.17
2018-08-17T13:23:33.552Z,98718.57
2018-08-17T13:26:02.482Z,98712.59
2018-08-17T13:28:31.442Z,98711.69
2018-08-17T13:31:00.352Z,98706.79
2018-08-17T13:33:29.210Z,98707.88
2018-08-17T13:35:58.478Z,98701.47
2018-08-17T13:38:27.459Z,98696.50
2018-08-17T13:40:56.377Z,98693.75
2018-08-17T13:43:25.289Z,98690.19
2018-08-17T13:45:54.251Z,98690.40
2018-08-17T13:48:23.137Z,98689.80
2018-08-17T13:50:52.102Z,98690.93
2018-08-17T13:53:21.045Z,98683.64
2018-08-17T13:55:49.927Z,98679.16
2018-08-17T13:58:18.856Z,98677.22
2018-08-17T14:00:47.815Z,98680.57
2018-08-17T14:03:16.703Z,98681.05
2018-08-17T14:05:45.578Z,98681.78
2018-08-17T14:08:14.538Z,98677.64
2018-08-17T14:10:43.483Z,98675.89
2018-08-17T14:13:12.413Z,98681.10
2018-08-17T14:15:41.418Z,98675.74
2018-08-17T14:18:10.564Z,98669.88
2018-08-17T14:20:39.497Z,98674.02
2018-08-17T14:23:08.476Z,98672.44
2018-08-17T14:25:37.418Z,98668.16
2018-08-17T14:28:06.370Z,98669.68
2018-08-17T14:30:35.595Z,98666.33
2018-08-17T14:33:04.577Z,98663.57
2018-08-17T14:35:33.513Z,98659.87
2018-08-17T14:38:02.490Z,98666.79
2018-08-17T14:40:31.387Z,98664.95
2018-08-17T14:43:00.234Z,98657.95
2018-08-17T14:45:29.226Z,98667.42
2018-08-17T14:47:58.202Z,98663.16
2018-08-17T14:50:27.052Z,98654.87
2018-08-17T14:52:55.996Z,98651.56
2018-08-17T14:55:24.928Z,98647.41
2018-08-17T14:57:53.876Z,98646.48
2018-08-17T15:00:22.773Z,98646.92
2018-08-17T15:02:51.664Z,98647.83
2018-08-17T15:05:20.611Z,98645.76
2018-08-17T15:07:49.574Z,98637.95
2018-08-17T15:10:18.458Z,98637.30
2018-08-17T15:12:47.357Z,98631.56
2018-08-17T15:15:16.285Z,98634.86
2018-08-17T15:17:45.169Z,98624.63
2018-08-17T15:20:14.082Z,98626.67
2018-08-17T15:22:43.306Z,98624.92
2018-08-17T15:25:12.219Z,98621.17
2018-08-17T15:27:41.164Z,98619.52
2018-08-17T15:30:11.426Z,98620.75
2018-08-17T15:32:41.227Z,98615.89
2018-08-17T15:35:11.070Z,98618.13
2018-08-17T15:37:41.371Z,98617.86
2018-08-17T15:40:11.802Z,98617.32
2018-08-17T15:42:41.207Z,98623.83
2018-08-17T15:45:10.832Z,98621.98
2018-08-17T15:47:39.768Z,98627.25
2018-08-17T15:50:11.390Z,98630.68
2018-08-17T15:52:40.370Z,98630.91
2018-08-17T15:55:09.273Z,98628.87
2018-08-17T15:57:38.447Z,98637.18
2018-08-17T16:00:09.554Z,98641.57
2018-08-17T16:02:38.460Z,98639.30
2018-08-17T16:05:07.599Z,98644.20
2018-08-17T16:07:36.561Z,98644.69
2018-08-17T16:10:06.330Z,98654.19
2018-08-17T16:12:35.259Z,98657.98
2018-08-17T16:15:04.280Z,98658.05
2018-08-17T16:17:33.202Z,98660.31
2018-08-17T16:20:02.131Z,98658.48
2018-08-17T16:22:31.088Z,98668.56
2018-08-17T16:24:59.950Z,98668.81
2018-08-17T16:27:28.812Z,98667.66
2018-08-17T16:29:57.644Z,98683.20
2018-08-17T16:32:26.540Z,98674.42
2018-08-17T16:34:55.612Z,98679.61
2018-08-17T16:37:24.498Z,98684.41
2018-08-17T16:39:53.293Z,98685.20
2018-08-17T16:42:27.362Z,98685.88
2018-08-17T16:44:56.557Z,98694.85
2018-08-17T16:47:25.860Z,98693.92
2018-08-17T16:49:54.975Z,98696.62
2018-08-17T16:52:25.523Z,98706.39
2018-08-17T16:54:54.650Z,98721.02
2018-08-17T16:57:23.571Z,98732.91
2018-08-17T16:59:52.475Z,98737.54
2018-08-17T17:02:21.330Z,98743.98
2018-08-17T17:04:50.306Z,98752.66
2018-08-17T17:07:19.326Z,98751.65
2018-08-17T17:09:48.477Z,98750.30
2018-08-17T17:12:21.096Z,98758.20
2018-08-17T17:14:50.052Z,98770.34
2018-08-17T17:17:18.913Z,98768.88
2018-08-17T17:19:47.774Z,98767.58
2018-08-17T17:22:16.745Z,98771.52
2018-08-17T17:24:45.636Z,98771.99
2018-08-17T17:27:15.580Z,98772.56
2018-08-17T17:29:44.447Z,98770.02
2018-08-17T17:32:13.371Z,98763.36
2018-08-17T17:34:42.328Z,98768.88
2018-08-17T17:37:11.137Z,98767.16
2018-08-17T17:39:40.021Z,98768.05
2018-08-17T17:42:09.016Z,98761.77
2018-08-17T17:44:37.960Z,98759.58
2018-08-17T17:47:06.812Z,98756.48
2018-08-17T17:49:35.747Z,98742.19
2018-08-17T17:52:04.859Z,98751.05
2018-08-17T17:54:33.800Z,98752.38
2018-08-17T17:57:07.907Z,98756.63
2018-08-17T17:59:43.502Z,98758.24
2018-08-17T18:02:12.722Z,98767.20
2018-08-17T18:04:41.857Z,98766.08
2018-08-17T18:07:10.864Z,98765.61
2018-08-17T18:09:39.836Z,98773.54
2018-08-17T18:12:08.837Z,98768.02
2018-08-17T18:14:37.910Z,98774.53
2018-08-17T18:17:06.873Z,98776.25
2018-08-17T18:19:35.817Z,98777.25
2018-08-17T18:22:04.807Z,98778.34
2018-08-17T18:24:33.892Z,98791.03
2018-08-17T18:27:02.868Z,98791.50
2018-08-17T18:29:31.801Z,98787.30
2018-08-17T18:32:00.725Z,98789.25
2018-08-17T18:34:29.610Z,98792.36
2018-08-17T18:36:58.575Z,98790.95
2018-08-17T18:39:27.498Z,98794.54
2018-08-17T18:41:56.443Z,98793.95
2018-08-17T18:44:25.353Z,98802.19
2018-08-17T18:46:58.464Z,98800.62
2018-08-17T18:49:27.387Z,98799.92
2018-08-17T18:51:56.250Z,98806.86
2018-08-17T18:54:27.413Z,98806.44
2018-08-17T18:56:56.392Z,98810.78
2018-08-17T18:59:25.380Z,98810.25
2018-08-17T19:01:54.491Z,98812.09
2018-08-17T19:04:23.492Z,98807.39
2018-08-17T19:06:52.379Z,98805.80
2018-08-17T19:09:21.616Z,98804.39
2018-08-17T19:11:50.589Z,98799.94
2018-08-17T19:14:19.770Z,98798.88
2018-08-17T19:16:48.719Z,98798.95
2018-08-17T19:19:17.582Z,98800.00
2018-08-17T19:21:46.422Z,98796.26
2018-08-17T19:24:15.318Z,98806.72
2018-08-17T19:26:44.204Z,98804.39
2018-08-17T19:29:13.049Z,98804.34
2018-08-17T19:31:48.066Z,98810.70
2018-08-17T19:34:16.890Z,98820.09
2018-08-17T19:36:45.745Z,98820.89
2018-08-17T19:39:37.481Z,98814.89
2018-08-17T19:42:06.414Z,98814.85
2018-08-17T19:44:35.292Z,98819.89
2018-08-17T19:47:04.248Z,98818.63
2018-08-17T19:49:33.133Z,98822.73
2018-08-17T19:52:02.073Z,98819.86
2018-08-17T19:54:30.965Z,98822.69
2018-08-17T19:56:59.933Z,98822.35
2018-08-17T19:59:28.946Z,98831.77
2018-08-17T20:01:58.116Z,98835.66
2018-08-17T20:04:27.015Z,98829.31
2018-08-17T20:06:55.863Z,98838.73
2018-08-17T20:09:24.803Z,98838.22
2018-08-17T20:11:53.746Z,98844.27
2018-08-17T20:14:22.710Z,98850.95
2018-08-17T20:16:52.313Z,98853.72
2018-08-17T20:19:21.477Z,98851.04
2018-08-17T20:21:50.381Z,98851.42
2018-08-17T20:24:19.220Z,98852.22
2018-08-17T20:26:48.509Z,98852.83
2018-08-17T20:29:17.316Z,98819.38
2018-08-17T20:31:46.115Z,98854.77
2018-08-17T20:34:14.966Z,98850.63
2018-08-17T20:36:43.857Z,98849.02
2018-08-17T20:39:13.862Z,98856.71
2018-08-17T20:41:42.745Z,98859.52
2018-08-17T20:44:11.608Z,98857.61
2018-08-17T20:46:40.451Z,98854.20
2018-08-17T20:49:09.277Z,98859.42
2018-08-17T20:51:45.277Z,98855.03
2018-08-17T20:54:14.117Z,98851.48
2018-08-17T20:56:42.918Z,98846.03
2018-08-17T20:59:11.737Z,98846.88
2018-08-17T21:01:40.532Z,98853.52
2018-08-17T21:04:09.650Z,98855.19
2018-08-17T21:06:38.528Z,98849.97
2018-08-17T21:09:08.540Z,98851.61
2018-08-17T21:11:37.450Z,98853.50
2018-08-17T21:14:06.276Z,98849.38
2018-08-17T21:16:35.101Z,98854.89
2018-08-17T21:19:03.966Z,98854.08
2018-08-17T21:21:32.841Z,98860.39
2018-08-17T21:24:01.662Z,98867.86
2018-08-17T21:26:30.690Z,98865.41
2018-08-17T21:28:59.540Z,98864.04
2018-08-17T21:31:28.393Z,98861.03
2018-08-17T21:33:57.214Z,98860.74
2018-08-17T21:36:26.083Z,98860.47
2018-08-17T21:39:10.560Z,98859.09
2018-08-17T21:41:41.189Z,98853.08
2018-08-17T21:44:12.385Z,98853.34
2018-08-17T21:46:50.023Z,98843.13
2018-08-17T21:49:19.159Z,98844.00
2018-08-17T21:51:47.967Z,98838.76
2018-08-17T21:54:18.488Z,98844.27
2018-08-17T21:56:48.336Z,98852.23
2018-08-17T21:59:17.162Z,98848.92
2018-08-17T22:01:46.029Z,98841.27
2018-08-17T22:04:14.843Z,98838.79
2018-08-17T22:06:43.657Z,98845.64
2018-08-17T22:09:13.004Z,98842.53
2018-08-17T22:11:43.232Z,98845.82
2018-08-17T22:14:12.093Z,98838.09
2018-08-17T22:16:40.990Z,98835.67
2018-08-17T22:19:14.304Z,98827.94
2018-08-17T22:21:43.139Z,98825.21
2018-08-17T22:24:12.020Z,98818.02
2018-08-17T22:26:40.843Z,98817.47
2018-08-17T22:29:09.681Z,98813.09
2018-08-17T22:31:38.992Z,98818.59
2018-08-17T22:34:07.826Z,98814.49
2018-08-17T22:36:36.732Z,98820.53
2018-08-17T22:39:07.140Z,98816.16
2018-08-17T22:41:36.010Z,98821.64
2018-08-17T22:44:08.961Z,98830.74
2018-08-17T22:46:37.758Z,98827.48
2018-08-17T22:49:06.626Z,98829.18
2018-08-17T22:51:35.466Z,98827.22
2018-08-17T22:54:04.285Z,98828.64
2018-08-17T22:56:33.108Z,98831.37
2018-08-17T22:59:01.956Z,98830.55
2018-08-17T23:01:30.792Z,98829.72
2018-08-17T23:03:59.574Z,98833.55
2018-08-17T23:06:28.501Z,98828.62
2018-08-17T23:08:57.387Z,98831.92
2018-08-17T23:11:36.054Z,98829.46
2018-08-17T23:14:09.638Z,98829.72
2018-08-17T23:16:38.550Z,98822.30
2018-08-17T23:19:07.378Z,98827.25
2018-08-17T23:21:36.134Z,98821.50
2018-08-17T23:24:04.977Z,98823.12
2018-08-17T23:26:33.791Z,98832.73
2018-08-17T23:29:02.612Z,98830.02
2018-08-17T23:31:31.486Z,98810.50
2018-08-17T23:34:00.300Z,98824.75
2018-08-17T23:36:29.202Z,98831.38
2018-08-17T23:38:58.077Z,98833.81
2018-08-17T23:41:26.962Z,98835.22
2018-08-17T23:43:55.787Z,98839.06
2018-08-17T23:46:24.593Z,98842.91
2018-08-17T23:48:53.433Z,98836.03
2018-08-17T23:51:22.215Z,98845.09
2018-08-17T23:53:51.047Z,98851.10
2018-08-17T23:56:19.859Z,98852.13
2018-08-17T23:58:48.701Z,98853.20
